Thunder radar more information blitzortung!


Radar de pluja more information rain snow radar


Visita la nostra xarxa de llocs de meteo:

Template documentation
and downloads

And another site



Extreme low temperature From: 13-12-2017 09:00 Until: 09:59 warning for: Extreme low temperature Level: Yellow info button

Pagina Historial Weather Underground text

Diari Resum Setembre 29, 2017 Unitats:  Tant    Imperial   Mètric
« Previous Dia
SegĂźent Dia »
Diari Setmana Mensual Anual Personalitzada
  Maxima: Minima: Media:
Temperatura: 81 °F /  27.2 °C 59.9 °F /  15.5 °C 71.2 °F /  21.8 °C
Punt de rosada: 62.4 °F /  16.9 °C 55 °F /  12.8 °C 58.6 °F /  14.8 °C
Humitat: 90 % 46 % 66 %
Wind Speed: 9.2 mph /  14.8 km/h - 3.7 mph /  5.9 km/h
RĂ fegues de vent: 9.2 mph /  14.8 km/h - -
Vent:- - SSW
Pression baro: 30.3 in /  1026.0 hPa 30.1 in /  1019.9 hPa -
Precipitacions: 0 in /  0.0 mm    
Historical Graphs
 
 
Dades de taula per Setembre 29, 2017
Temps Temperatura Punt de rosada Pression baro Vent Wind Speed RĂ fegues de vent Humitat Rainfall Rate (Hourly)
00:01 63.9 °F /  17.7 °C 57.2 °F /  14.0 °C 30.3 in /  1026.0 hPa NNW 1.2 mph /  1.9 km/h 1.2 mph /  1.9 km/h 79 % 0 in /  0.0 mm
00:06 63.9 °F /  17.7 °C 57.2 °F /  14.0 °C 30.3 in /  1026.0 hPa Calm     79 % 0 in /  0.0 mm
00:11 63.7 °F /  17.6 °C 57 °F /  13.9 °C 30.3 in /  1026.0 hPa Calm     79 % 0 in /  0.0 mm
03:55 60.4 °F /  15.8 °C 57.2 °F /  14.0 °C 30.3 in /  1024.9 hPa Calm   2 mph /  3.2 km/h 89 % 0 in /  0.0 mm
04:05 61.3 °F /  16.3 °C 58.5 °F /  14.7 °C 30.3 in /  1024.9 hPa Calm   1 mph /  1.6 km/h 90 % 0 in /  0.0 mm
04:15 62.8 °F /  17.1 °C 59.2 °F /  15.1 °C 30.3 in /  1024.9 hPa Calm   1 mph /  1.6 km/h 88 % 0 in /  0.0 mm
04:25 63.5 °F /  17.5 °C 59.2 °F /  15.1 °C 30.3 in /  1024.9 hPa North 1 mph /  1.6 km/h 1 mph /  1.6 km/h 86 % 0 in /  0.0 mm
04:35 63.7 °F /  17.6 °C 59.2 °F /  15.1 °C 30.3 in /  1024.9 hPa NE 1 mph /  1.6 km/h 2 mph /  3.2 km/h 85 % 0 in /  0.0 mm
04:45 64.9 °F /  18.3 °C 59.7 °F /  15.4 °C 30.3 in /  1024.9 hPa Calm   2 mph /  3.2 km/h 83 % 0 in /  0.0 mm
04:55 65.8 °F /  18.8 °C 59.7 °F /  15.4 °C 30.3 in /  1024.9 hPa NE 1 mph /  1.6 km/h 1 mph /  1.6 km/h 81 % 0 in /  0.0 mm
05:05 66.2 °F /  19.0 °C 59.5 °F /  15.3 °C 30.3 in /  1024.9 hPa Calm   2 mph /  3.2 km/h 79 % 0 in /  0.0 mm
05:15 66.4 °F /  19.1 °C 59.4 °F /  15.2 °C 30.3 in /  1024.9 hPa ENE 2 mph /  3.2 km/h 4 mph /  6.4 km/h 78 % 0 in /  0.0 mm
05:25 66.9 °F /  19.4 °C 59.5 °F /  15.3 °C 30.3 in /  1026.0 hPa NE 2 mph /  3.2 km/h 2 mph /  3.2 km/h 77 % 0 in /  0.0 mm
10:27 67.5 °F /  19.7 °C 60.1 °F /  15.6 °C 30.3 in /  1026.0 hPa NNE 3.5 mph /  5.6 km/h 3.5 mph /  5.6 km/h 77 % 0 in /  0.0 mm
10:28 67.5 °F /  19.7 °C 60.1 °F /  15.6 °C 30.3 in /  1026.0 hPa ENE 3.6 mph /  5.8 km/h 3.6 mph /  5.8 km/h 77 % 0 in /  0.0 mm
10:31 67.3 °F /  19.6 °C 59.7 °F /  15.4 °C 30.3 in /  1024.9 hPa NE 3.5 mph /  5.6 km/h 3.5 mph /  5.6 km/h 77 % 0 in /  0.0 mm
10:36 68.2 °F /  20.1 °C 60.6 °F /  15.9 °C 30.3 in /  1024.9 hPa NNW 2.3 mph /  3.7 km/h 2.3 mph /  3.7 km/h 77 % 0 in /  0.0 mm
10:41 68.9 °F /  20.5 °C 61 °F /  16.1 °C 30.3 in /  1024.9 hPa North 4.6 mph /  7.4 km/h 4.6 mph /  7.4 km/h 76 % 0 in /  0.0 mm
10:46 69.1 °F /  20.6 °C 60.8 °F /  16.0 °C 30.3 in /  1024.9 hPa NNW 2.4 mph /  3.9 km/h 2.4 mph /  3.9 km/h 75 % 0 in /  0.0 mm
10:51 68.7 °F /  20.4 °C 60.1 °F /  15.6 °C 30.3 in /  1024.9 hPa NNE 3.3 mph /  5.3 km/h 3.3 mph /  5.3 km/h 74 % 0 in /  0.0 mm
10:56 69.3 °F /  20.7 °C 60.6 °F /  15.9 °C 30.3 in /  1024.9 hPa NE 2.3 mph /  3.7 km/h 2.3 mph /  3.7 km/h 74 % 0 in /  0.0 mm
11:01 69.6 °F /  20.9 °C 60.6 °F /  15.9 °C 30.3 in /  1024.9 hPa ENE 2.3 mph /  3.7 km/h 2.3 mph /  3.7 km/h 73 % 0 in /  0.0 mm
11:06 70.2 °F /  21.2 °C 61.2 °F /  16.2 °C 30.3 in /  1024.9 hPa NW 3.5 mph /  5.6 km/h 3.5 mph /  5.6 km/h 73 % 0 in /  0.0 mm
11:11 69.4 °F /  20.8 °C 60.4 °F /  15.8 °C 30.3 in /  1024.9 hPa South 2.3 mph /  3.7 km/h 2.3 mph /  3.7 km/h 73 % 0 in /  0.0 mm
11:16 70.7 °F /  21.5 °C 61.2 °F /  16.2 °C 30.3 in /  1024.9 hPa East 2.3 mph /  3.7 km/h   72 % 0 in /  0.0 mm
11:21 71.4 °F /  21.9 °C 61.5 °F /  16.4 °C 30.3 in /  1024.9 hPa SE 2.3 mph /  3.7 km/h 2.3 mph /  3.7 km/h 71 % 0 in /  0.0 mm
11:26 71.6 °F /  22.0 °C 61 °F /  16.1 °C 30.3 in /  1024.9 hPa SSE 3.5 mph /  5.6 km/h   69 % 0 in /  0.0 mm
11:31 72.3 °F /  22.4 °C 61.5 °F /  16.4 °C 30.3 in /  1024.9 hPa SSE 1.2 mph /  1.9 km/h   69 % 0 in /  0.0 mm
11:36 72.7 °F /  22.6 °C 61.5 °F /  16.4 °C 30.3 in /  1024.9 hPa NNE 3.5 mph /  5.6 km/h 3.5 mph /  5.6 km/h 68 % 0 in /  0.0 mm
11:41 72 °F /  22.2 °C 60.4 °F /  15.8 °C 30.3 in /  1024.9 hPa ENE 2.6 mph /  4.2 km/h 2.6 mph /  4.2 km/h 67 % 0 in /  0.0 mm
11:46 72.7 °F /  22.6 °C 61.5 °F /  16.4 °C 30.3 in /  1024.9 hPa NNE 2.3 mph /  3.7 km/h 2.3 mph /  3.7 km/h 68 % 0 in /  0.0 mm
11:51 73 °F /  22.8 °C 61.9 °F /  16.6 °C 30.3 in /  1024.9 hPa WNW 3.5 mph /  5.6 km/h 3.5 mph /  5.6 km/h 68 % 0 in /  0.0 mm
11:56 72.3 °F /  22.4 °C 61.2 °F /  16.2 °C 30.3 in /  1024.9 hPa West 3.5 mph /  5.6 km/h 3.5 mph /  5.6 km/h 68 % 0 in /  0.0 mm
12:01 73.2 °F /  22.9 °C 61.5 °F /  16.4 °C 30.2 in /  1023.9 hPa NNW 2.3 mph /  3.7 km/h 2.3 mph /  3.7 km/h 67 % 0 in /  0.0 mm
12:06 73.9 °F /  23.3 °C 61.9 °F /  16.6 °C 30.2 in /  1023.9 hPa West 3.5 mph /  5.6 km/h 3.5 mph /  5.6 km/h 66 % 0 in /  0.0 mm
12:11 75 °F /  23.9 °C 62.4 °F /  16.9 °C 30.2 in /  1023.9 hPa SW 3.3 mph /  5.3 km/h 3.3 mph /  5.3 km/h 65 % 0 in /  0.0 mm
12:16 74.7 °F /  23.7 °C 61.7 °F /  16.5 °C 30.2 in /  1023.9 hPa West 5.6 mph /  9.0 km/h 5.6 mph /  9.0 km/h 64 % 0 in /  0.0 mm
12:21 75.2 °F /  24.0 °C 61.7 °F /  16.5 °C 30.2 in /  1023.9 hPa SSW 2.4 mph /  3.9 km/h 2.4 mph /  3.9 km/h 63 % 0 in /  0.0 mm
12:26 75.4 °F /  24.1 °C 61.5 °F /  16.4 °C 30.2 in /  1023.9 hPa SSW 5.8 mph /  9.3 km/h 5.8 mph /  9.3 km/h 62 % 0 in /  0.0 mm
12:31 74.8 °F /  23.8 °C 61 °F /  16.1 °C 30.2 in /  1023.9 hPa SW 4.6 mph /  7.4 km/h 4.6 mph /  7.4 km/h 62 % 0 in /  0.0 mm
12:36 74.8 °F /  23.8 °C 60.1 °F /  15.6 °C 30.2 in /  1023.9 hPa ESE 4.6 mph /  7.4 km/h 4.6 mph /  7.4 km/h 60 % 0 in /  0.0 mm
12:41 75.4 °F /  24.1 °C 60.1 °F /  15.6 °C 30.2 in /  1023.9 hPa West 2.3 mph /  3.7 km/h 2.3 mph /  3.7 km/h 59 % 0 in /  0.0 mm
12:46 76.1 °F /  24.5 °C 59.7 °F /  15.4 °C 30.2 in /  1023.9 hPa SE 4.6 mph /  7.4 km/h 4.6 mph /  7.4 km/h 57 % 0 in /  0.0 mm
12:51 76.3 °F /  24.6 °C 60.4 °F /  15.8 °C 30.2 in /  1023.9 hPa SSW 5.8 mph /  9.3 km/h 5.8 mph /  9.3 km/h 58 % 0 in /  0.0 mm
12:56 75.9 °F /  24.4 °C 59.5 °F /  15.3 °C 30.2 in /  1023.9 hPa SW 5.8 mph /  9.3 km/h 5.8 mph /  9.3 km/h 57 % 0 in /  0.0 mm
13:01 76.1 °F /  24.5 °C 59.4 °F /  15.2 °C 30.2 in /  1023.9 hPa NW 3.5 mph /  5.6 km/h 3.5 mph /  5.6 km/h 56 % 0 in /  0.0 mm
13:06 75.7 °F /  24.3 °C 58.5 °F /  14.7 °C 30.2 in /  1023.9 hPa ESE 3.5 mph /  5.6 km/h 3.5 mph /  5.6 km/h 55 % 0 in /  0.0 mm
13:11 76.8 °F /  24.9 °C 59.4 °F /  15.2 °C 30.2 in /  1023.9 hPa SW 2.3 mph /  3.7 km/h 2.3 mph /  3.7 km/h 55 % 0 in /  0.0 mm
13:16 78.1 °F /  25.6 °C 59.5 °F /  15.3 °C 30.2 in /  1022.9 hPa SE 3.1 mph /  5.0 km/h 3.1 mph /  5.0 km/h 53 % 0 in /  0.0 mm
13:21 77.7 °F /  25.4 °C 59.2 °F /  15.1 °C 30.2 in /  1022.9 hPa ESE 3.5 mph /  5.6 km/h 3.5 mph /  5.6 km/h 53 % 0 in /  0.0 mm
13:26 77.9 °F /  25.5 °C 59.9 °F /  15.5 °C 30.2 in /  1022.9 hPa SSW 5.8 mph /  9.3 km/h 5.8 mph /  9.3 km/h 54 % 0 in /  0.0 mm
13:31 78.8 °F /  26.0 °C 59.7 °F /  15.4 °C 30.2 in /  1022.9 hPa ESE 3.5 mph /  5.6 km/h 3.5 mph /  5.6 km/h 52 % 0 in /  0.0 mm
13:36 79 °F /  26.1 °C 59.9 °F /  15.5 °C 30.2 in /  1022.9 hPa WSW 5.8 mph /  9.3 km/h 5.8 mph /  9.3 km/h 52 % 0 in /  0.0 mm
13:41 79.2 °F /  26.2 °C 58.8 °F /  14.9 °C 30.2 in /  1022.9 hPa SW 3.5 mph /  5.6 km/h 3.5 mph /  5.6 km/h 50 % 0 in /  0.0 mm
13:46 78.6 °F /  25.9 °C 58.5 °F /  14.7 °C 30.2 in /  1022.9 hPa SSE 3.5 mph /  5.6 km/h 3.5 mph /  5.6 km/h 50 % 0 in /  0.0 mm
13:51 78.3 °F /  25.7 °C 57.6 °F /  14.2 °C 30.2 in /  1022.9 hPa ESE 2.4 mph /  3.9 km/h 2.4 mph /  3.9 km/h 49 % 0 in /  0.0 mm
13:56 79.5 °F /  26.4 °C 58.6 °F /  14.8 °C 30.2 in /  1022.9 hPa WSW 3.8 mph /  6.1 km/h 3.8 mph /  6.1 km/h 49 % 0 in /  0.0 mm
14:01 79.2 °F /  26.2 °C 58.8 °F /  14.9 °C 30.2 in /  1022.9 hPa NNE 3.5 mph /  5.6 km/h 3.5 mph /  5.6 km/h 50 % 0 in /  0.0 mm
14:06 79.2 °F /  26.2 °C 58.8 °F /  14.9 °C 30.2 in /  1022.9 hPa South 4.3 mph /  6.9 km/h 4.3 mph /  6.9 km/h 50 % 0 in /  0.0 mm
14:11 80.1 °F /  26.7 °C 59.7 °F /  15.4 °C 30.2 in /  1022.9 hPa SW 6.9 mph /  11.1 km/h 6.9 mph /  11.1 km/h 50 % 0 in /  0.0 mm
14:16 80.6 °F /  27.0 °C 59.2 °F /  15.1 °C 30.2 in /  1021.9 hPa SW 3.5 mph /  5.6 km/h 3.8 mph /  6.1 km/h 48 % 0 in /  0.0 mm
14:21 80.6 °F /  27.0 °C 57.9 °F /  14.4 °C 30.2 in /  1021.9 hPa SSE 3.5 mph /  5.6 km/h 3.6 mph /  5.8 km/h 46 % 0 in /  0.0 mm
14:26 80.6 °F /  27.0 °C 57.9 °F /  14.4 °C 30.2 in /  1021.9 hPa East 4.3 mph /  6.9 km/h 4.3 mph /  6.9 km/h 46 % 0 in /  0.0 mm
14:31 79.5 °F /  26.4 °C 57.6 °F /  14.2 °C 30.2 in /  1022.9 hPa ESE 8.1 mph /  13.0 km/h 8.1 mph /  13.0 km/h 47 % 0 in /  0.0 mm
14:36 79 °F /  26.1 °C 58.3 °F /  14.6 °C 30.2 in /  1022.9 hPa SSE 4.6 mph /  7.4 km/h 4.6 mph /  7.4 km/h 49 % 0 in /  0.0 mm
14:41 78.3 °F /  25.7 °C 58.6 °F /  14.8 °C 30.2 in /  1022.9 hPa ESE 5.8 mph /  9.3 km/h 5.8 mph /  9.3 km/h 51 % 0 in /  0.0 mm
14:46 78.4 °F /  25.8 °C 58.8 °F /  14.9 °C 30.2 in /  1021.9 hPa ESE 8.1 mph /  13.0 km/h 8.1 mph /  13.0 km/h 51 % 0 in /  0.0 mm
14:51 77.2 °F /  25.1 °C 57.7 °F /  14.3 °C 30.2 in /  1021.9 hPa ENE 5.8 mph /  9.3 km/h 5.8 mph /  9.3 km/h 51 % 0 in /  0.0 mm
14:56 77 °F /  25.0 °C 57.6 °F /  14.2 °C 30.2 in /  1021.9 hPa SE 6.4 mph /  10.3 km/h 6.4 mph /  10.3 km/h 51 % 0 in /  0.0 mm
15:01 77.2 °F /  25.1 °C 58.3 °F /  14.6 °C 30.2 in /  1021.9 hPa East 8.1 mph /  13.0 km/h 8.1 mph /  13.0 km/h 52 % 0 in /  0.0 mm
15:06 76.8 °F /  24.9 °C 58.5 °F /  14.7 °C 30.2 in /  1021.9 hPa ENE 2.6 mph /  4.2 km/h 2.6 mph /  4.2 km/h 53 % 0 in /  0.0 mm
15:11 76.5 °F /  24.7 °C 58.1 °F /  14.5 °C 30.2 in /  1021.9 hPa ENE 4.6 mph /  7.4 km/h 4.6 mph /  7.4 km/h 53 % 0 in /  0.0 mm
15:16 77 °F /  25.0 °C 57.9 °F /  14.4 °C 30.2 in /  1021.9 hPa ENE 5.8 mph /  9.3 km/h 5.8 mph /  9.3 km/h 52 % 0 in /  0.0 mm
15:21 77.4 °F /  25.2 °C 58.8 °F /  14.9 °C 30.2 in /  1021.9 hPa ESE 5.8 mph /  9.3 km/h 5.8 mph /  9.3 km/h 53 % 0 in /  0.0 mm
15:26 76.3 °F /  24.6 °C 58.5 °F /  14.7 °C 30.2 in /  1021.9 hPa ESE 5.8 mph /  9.3 km/h 5.8 mph /  9.3 km/h 54 % 0 in /  0.0 mm
15:31 76.6 °F /  24.8 °C 58.6 °F /  14.8 °C 30.2 in /  1021.9 hPa NE 5.9 mph /  9.5 km/h 5.9 mph /  9.5 km/h 54 % 0 in /  0.0 mm
15:36 76.6 °F /  24.8 °C 58.6 °F /  14.8 °C 30.2 in /  1021.9 hPa ESE 5.8 mph /  9.3 km/h 5.8 mph /  9.3 km/h 54 % 0 in /  0.0 mm
15:37 76.6 °F /  24.8 °C 58.6 °F /  14.8 °C 30.2 in /  1021.9 hPa ESE 6.4 mph /  10.3 km/h 6.4 mph /  10.3 km/h 54 % 0 in /  0.0 mm
15:42 77 °F /  25.0 °C 58.6 °F /  14.8 °C 30.2 in /  1021.9 hPa ESE 6.9 mph /  11.1 km/h 6.9 mph /  11.1 km/h 53 % 0 in /  0.0 mm
15:47 77.9 °F /  25.5 °C 59.9 °F /  15.5 °C 30.2 in /  1021.9 hPa SSW 6.9 mph /  11.1 km/h 6.9 mph /  11.1 km/h 54 % 0 in /  0.0 mm
15:52 77.9 °F /  25.5 °C 59.4 °F /  15.2 °C 30.2 in /  1021.9 hPa ENE 4.6 mph /  7.4 km/h 4.6 mph /  7.4 km/h 53 % 0 in /  0.0 mm
15:57 78.1 °F /  25.6 °C 60.1 °F /  15.6 °C 30.2 in /  1021.9 hPa SW 4.6 mph /  7.4 km/h 4.6 mph /  7.4 km/h 54 % 0 in /  0.0 mm
15:58 78.4 °F /  25.8 °C 60.4 °F /  15.8 °C 30.2 in /  1021.9 hPa SE 5.4 mph /  8.7 km/h 5.4 mph /  8.7 km/h 54 % 0 in /  0.0 mm
16:03 77.5 °F /  25.3 °C 59.2 °F /  15.1 °C 30.2 in /  1021.9 hPa NNE 5.8 mph /  9.3 km/h 5.8 mph /  9.3 km/h 53 % 0 in /  0.0 mm
16:08 78.6 °F /  25.9 °C 60.1 °F /  15.6 °C 30.2 in /  1021.9 hPa SSE 4.6 mph /  7.4 km/h 4.6 mph /  7.4 km/h 53 % 0 in /  0.0 mm
16:13 79.5 °F /  26.4 °C 60.4 °F /  15.8 °C 30.2 in /  1021.9 hPa South 3.5 mph /  5.6 km/h 3.5 mph /  5.6 km/h 52 % 0 in /  0.0 mm
16:18 79.7 °F /  26.5 °C 60.1 °F /  15.6 °C 30.2 in /  1020.9 hPa SW 4.6 mph /  7.4 km/h 4.6 mph /  7.4 km/h 51 % 0 in /  0.0 mm
16:23 80.6 °F /  27.0 °C 60.8 °F /  16.0 °C 30.2 in /  1020.9 hPa SW 7.4 mph /  11.9 km/h 7.4 mph /  11.9 km/h 51 % 0 in /  0.0 mm
16:28 80.8 °F /  27.1 °C 60.4 °F /  15.8 °C 30.2 in /  1020.9 hPa SSW 6.4 mph /  10.3 km/h 6.4 mph /  10.3 km/h 50 % 0 in /  0.0 mm
16:33 81 °F /  27.2 °C 60.1 °F /  15.6 °C 30.2 in /  1021.9 hPa SW 5.8 mph /  9.3 km/h 5.8 mph /  9.3 km/h 49 % 0 in /  0.0 mm
16:38 80.2 °F /  26.8 °C 59.9 °F /  15.5 °C 30.2 in /  1021.9 hPa SSW 8.1 mph /  13.0 km/h 8.1 mph /  13.0 km/h 50 % 0 in /  0.0 mm
16:43 80.4 °F /  26.9 °C 60.1 °F /  15.6 °C 30.2 in /  1021.9 hPa SW 6.2 mph /  10.0 km/h 6.2 mph /  10.0 km/h 50 % 0 in /  0.0 mm
16:48 80.2 °F /  26.8 °C 59.4 °F /  15.2 °C 30.2 in /  1020.9 hPa SW 8.1 mph /  13.0 km/h 8.1 mph /  13.0 km/h 49 % 0 in /  0.0 mm
16:53 80.2 °F /  26.8 °C 59.4 °F /  15.2 °C 30.2 in /  1020.9 hPa SSW 5.8 mph /  9.3 km/h 5.8 mph /  9.3 km/h 49 % 0 in /  0.0 mm
16:58 80.2 °F /  26.8 °C 59.4 °F /  15.2 °C 30.2 in /  1020.9 hPa SSW 6.9 mph /  11.1 km/h 6.9 mph /  11.1 km/h 49 % 0 in /  0.0 mm
17:03 80.2 °F /  26.8 °C 59.4 °F /  15.2 °C 30.2 in /  1020.9 hPa SW 9.2 mph /  14.8 km/h 9.2 mph /  14.8 km/h 49 % 0 in /  0.0 mm
17:08 80.1 °F /  26.7 °C 59.2 °F /  15.1 °C 30.2 in /  1020.9 hPa WSW 6.9 mph /  11.1 km/h 6.9 mph /  11.1 km/h 49 % 0 in /  0.0 mm
17:13 80.2 °F /  26.8 °C 59.4 °F /  15.2 °C 30.2 in /  1020.9 hPa West 6.4 mph /  10.3 km/h 6.4 mph /  10.3 km/h 49 % 0 in /  0.0 mm
17:18 79.5 °F /  26.4 °C 58.6 °F /  14.8 °C 30.1 in /  1019.9 hPa WSW 5.8 mph /  9.3 km/h 5.8 mph /  9.3 km/h 49 % 0 in /  0.0 mm
17:23 79.2 °F /  26.2 °C 58.5 °F /  14.7 °C 30.1 in /  1019.9 hPa SW 5.8 mph /  9.3 km/h 5.8 mph /  9.3 km/h 49 % 0 in /  0.0 mm
17:28 79.9 °F /  26.6 °C 59.5 °F /  15.3 °C 30.1 in /  1019.9 hPa SW 4.3 mph /  6.9 km/h 4.3 mph /  6.9 km/h 50 % 0 in /  0.0 mm
17:33 79.2 °F /  26.2 °C 58.8 °F /  14.9 °C 30.1 in /  1019.9 hPa South 5.8 mph /  9.3 km/h 5.8 mph /  9.3 km/h 50 % 0 in /  0.0 mm
17:38 79 °F /  26.1 °C 58.8 °F /  14.9 °C 30.1 in /  1019.9 hPa WSW 4.6 mph /  7.4 km/h 5.4 mph /  8.7 km/h 50 % 0 in /  0.0 mm
17:43 78.1 °F /  25.6 °C 57.9 °F /  14.4 °C 30.1 in /  1019.9 hPa SW 6.9 mph /  11.1 km/h 6.9 mph /  11.1 km/h 50 % 0 in /  0.0 mm
17:48 77.9 °F /  25.5 °C 57.7 °F /  14.3 °C 30.1 in /  1019.9 hPa SW 4.7 mph /  7.6 km/h 4.7 mph /  7.6 km/h 50 % 0 in /  0.0 mm
17:53 77.5 °F /  25.3 °C 57.4 °F /  14.1 °C 30.1 in /  1019.9 hPa SW 6.9 mph /  11.1 km/h 6.9 mph /  11.1 km/h 50 % 0 in /  0.0 mm
17:58 77.5 °F /  25.3 °C 57.9 °F /  14.4 °C 30.1 in /  1019.9 hPa SW 4.9 mph /  7.9 km/h 4.9 mph /  7.9 km/h 51 % 0 in /  0.0 mm
18:03 77.2 °F /  25.1 °C 57.7 °F /  14.3 °C 30.1 in /  1019.9 hPa WSW 6.9 mph /  11.1 km/h 6.9 mph /  11.1 km/h 51 % 0 in /  0.0 mm
18:13 76.5 °F /  24.7 °C 57.6 °F /  14.2 °C 30.1 in /  1019.9 hPa WSW 5.8 mph /  9.3 km/h 5.8 mph /  9.3 km/h 52 % 0 in /  0.0 mm
18:18 76.3 °F /  24.6 °C 57.9 °F /  14.4 °C 30.1 in /  1019.9 hPa WSW 4.6 mph /  7.4 km/h 4.6 mph /  7.4 km/h 53 % 0 in /  0.0 mm
18:23 76.3 °F /  24.6 °C 57.9 °F /  14.4 °C 30.1 in /  1019.9 hPa SW 4.6 mph /  7.4 km/h 4.6 mph /  7.4 km/h 53 % 0 in /  0.0 mm
18:28 76.1 °F /  24.5 °C 58.3 °F /  14.6 °C 30.1 in /  1019.9 hPa South 6.2 mph /  10.0 km/h 6.2 mph /  10.0 km/h 54 % 0 in /  0.0 mm
18:29 75.9 °F /  24.4 °C 58.1 °F /  14.5 °C 30.1 in /  1019.9 hPa SSW 5.8 mph /  9.3 km/h 5.8 mph /  9.3 km/h 54 % 0 in /  0.0 mm
18:34 75.4 °F /  24.1 °C 57.6 °F /  14.2 °C 30.1 in /  1019.9 hPa West 9.2 mph /  14.8 km/h 9.2 mph /  14.8 km/h 54 % 0 in /  0.0 mm
18:39 75 °F /  23.9 °C 57.7 °F /  14.3 °C 30.1 in /  1019.9 hPa SW 4.6 mph /  7.4 km/h 4.6 mph /  7.4 km/h 55 % 0 in /  0.0 mm
18:44 74.5 °F /  23.6 °C 57.7 °F /  14.3 °C 30.1 in /  1019.9 hPa SSW 9.2 mph /  14.8 km/h 9.2 mph /  14.8 km/h 56 % 0 in /  0.0 mm
18:49 73.9 °F /  23.3 °C 57.4 °F /  14.1 °C 30.1 in /  1019.9 hPa SSW 4.6 mph /  7.4 km/h 4.6 mph /  7.4 km/h 56 % 0 in /  0.0 mm
18:54 73.9 °F /  23.3 °C 57.7 °F /  14.3 °C 30.1 in /  1019.9 hPa WSW 5.8 mph /  9.3 km/h 5.8 mph /  9.3 km/h 57 % 0 in /  0.0 mm
18:59 73.4 °F /  23.0 °C 57.2 °F /  14.0 °C 30.1 in /  1019.9 hPa SW 9.2 mph /  14.8 km/h 9.2 mph /  14.8 km/h 57 % 0 in /  0.0 mm
19:04 72.9 °F /  22.7 °C 57.2 °F /  14.0 °C 30.1 in /  1019.9 hPa SW 5.8 mph /  9.3 km/h 5.8 mph /  9.3 km/h 58 % 0 in /  0.0 mm
19:09 72.5 °F /  22.5 °C 57.4 °F /  14.1 °C 30.1 in /  1019.9 hPa SSW 4.6 mph /  7.4 km/h 4.6 mph /  7.4 km/h 59 % 0 in /  0.0 mm
19:14 72.3 °F /  22.4 °C 57.2 °F /  14.0 °C 30.1 in /  1019.9 hPa South 8.1 mph /  13.0 km/h 8.1 mph /  13.0 km/h 59 % 0 in /  0.0 mm
19:19 72 °F /  22.2 °C 57.4 °F /  14.1 °C 30.1 in /  1019.9 hPa SSW 4.6 mph /  7.4 km/h 4.6 mph /  7.4 km/h 60 % 0 in /  0.0 mm
19:24 71.6 °F /  22.0 °C 57 °F /  13.9 °C 30.1 in /  1019.9 hPa WSW 5.8 mph /  9.3 km/h 5.8 mph /  9.3 km/h 60 % 0 in /  0.0 mm
19:26 71.4 °F /  21.9 °C 57.4 °F /  14.1 °C 30.1 in /  1019.9 hPa SW 6.9 mph /  11.1 km/h 6.9 mph /  11.1 km/h 61 % 0 in /  0.0 mm
19:30 64.6 °F /  18.1 °C 57.9 °F /  14.4 °C 30.2 in /  1022.9 hPa WSW 1 mph /  1.6 km/h 1 mph /  1.6 km/h 79 % 0 in /  0.0 mm
19:31 71.2 °F /  21.8 °C 57.6 °F /  14.2 °C 30.1 in /  1019.9 hPa WSW 8.1 mph /  13.0 km/h 8.1 mph /  13.0 km/h 62 % 0 in /  0.0 mm
19:36 70.9 °F /  21.6 °C 57.2 °F /  14.0 °C 30.1 in /  1019.9 hPa SW 5.8 mph /  9.3 km/h 5.8 mph /  9.3 km/h 62 % 0 in /  0.0 mm
19:40 64.4 °F /  18.0 °C 57.7 °F /  14.3 °C 30.2 in /  1022.9 hPa Calm   1 mph /  1.6 km/h 79 % 0 in /  0.0 mm
19:41 70.7 °F /  21.5 °C 57.6 °F /  14.2 °C 30.1 in /  1019.9 hPa SW 5.8 mph /  9.3 km/h 5.8 mph /  9.3 km/h 63 % 0 in /  0.0 mm
19:46 70.3 °F /  21.3 °C 57 °F /  13.9 °C 30.2 in /  1020.9 hPa SW 5.8 mph /  9.3 km/h 5.8 mph /  9.3 km/h 63 % 0 in /  0.0 mm
19:50 64.4 °F /  18.0 °C 57.7 °F /  14.3 °C 30.2 in /  1022.9 hPa WNW 1 mph /  1.6 km/h 2 mph /  3.2 km/h 79 % 0 in /  0.0 mm
19:51 70.2 °F /  21.2 °C 57.4 °F /  14.1 °C 30.2 in /  1020.9 hPa SW 8.1 mph /  13.0 km/h 8.1 mph /  13.0 km/h 64 % 0 in /  0.0 mm
19:56 69.8 °F /  21.0 °C 57.6 °F /  14.2 °C 30.2 in /  1020.9 hPa WSW 4.6 mph /  7.4 km/h 4.6 mph /  7.4 km/h 65 % 0 in /  0.0 mm
20:00 64 °F /  17.8 °C 57.4 °F /  14.1 °C 30.2 in /  1022.9 hPa West 1 mph /  1.6 km/h 2 mph /  3.2 km/h 79 % 0 in /  0.0 mm
20:01 69.6 °F /  20.9 °C 57.4 °F /  14.1 °C 30.2 in /  1020.9 hPa SW 6 mph /  9.7 km/h 6 mph /  9.7 km/h 65 % 0 in /  0.0 mm
20:06 69.4 °F /  20.8 °C 57.6 °F /  14.2 °C 30.2 in /  1020.9 hPa SW 5.8 mph /  9.3 km/h 5.8 mph /  9.3 km/h 66 % 0 in /  0.0 mm
20:10 63.7 °F /  17.6 °C 57.4 °F /  14.1 °C 30.2 in /  1021.9 hPa WSW 1 mph /  1.6 km/h 2 mph /  3.2 km/h 80 % 0 in /  0.0 mm
20:11 69.3 °F /  20.7 °C 57.4 °F /  14.1 °C 30.2 in /  1020.9 hPa SW 6 mph /  9.7 km/h 6 mph /  9.7 km/h 66 % 0 in /  0.0 mm
20:16 69.1 °F /  20.6 °C 57.7 °F /  14.3 °C 30.2 in /  1021.9 hPa SW 6.9 mph /  11.1 km/h 6.9 mph /  11.1 km/h 67 % 0 in /  0.0 mm
20:20 63.7 °F /  17.6 °C 57.4 °F /  14.1 °C 30.2 in /  1021.9 hPa West 1 mph /  1.6 km/h 2 mph /  3.2 km/h 80 % 0 in /  0.0 mm
20:21 68.9 °F /  20.5 °C 57.6 °F /  14.2 °C 30.2 in /  1021.9 hPa SW 5.8 mph /  9.3 km/h 5.8 mph /  9.3 km/h 67 % 0 in /  0.0 mm
20:26 68.7 °F /  20.4 °C 57.7 °F /  14.3 °C 30.2 in /  1021.9 hPa WSW 6.2 mph /  10.0 km/h 6.2 mph /  10.0 km/h 68 % 0 in /  0.0 mm
20:30 63.5 °F /  17.5 °C 57.2 °F /  14.0 °C 30.2 in /  1021.9 hPa West 1 mph /  1.6 km/h 2 mph /  3.2 km/h 80 % 0 in /  0.0 mm
20:31 68.5 °F /  20.3 °C 57.9 °F /  14.4 °C 30.2 in /  1020.9 hPa WSW 4.6 mph /  7.4 km/h 4.6 mph /  7.4 km/h 69 % 0 in /  0.0 mm
20:36 68.4 °F /  20.2 °C 57.7 °F /  14.3 °C 30.2 in /  1020.9 hPa SW 5.8 mph /  9.3 km/h 5.8 mph /  9.3 km/h 69 % 0 in /  0.0 mm
20:40 63.5 °F /  17.5 °C 57.6 °F /  14.2 °C 30.2 in /  1022.9 hPa WSW 1 mph /  1.6 km/h 2 mph /  3.2 km/h 81 % 0 in /  0.0 mm
20:41 68.2 °F /  20.1 °C 57.6 °F /  14.2 °C 30.2 in /  1020.9 hPa South 4.6 mph /  7.4 km/h 4.6 mph /  7.4 km/h 69 % 0 in /  0.0 mm
20:42 68.2 °F /  20.1 °C 57.6 °F /  14.2 °C 30.2 in /  1020.9 hPa SW 4.6 mph /  7.4 km/h 4.6 mph /  7.4 km/h 69 % 0 in /  0.0 mm
20:47 68 °F /  20.0 °C 57.7 °F /  14.3 °C 30.2 in /  1020.9 hPa SW 2.6 mph /  4.2 km/h 2.6 mph /  4.2 km/h 70 % 0 in /  0.0 mm
20:50 63.5 °F /  17.5 °C 57.6 °F /  14.2 °C 30.2 in /  1022.9 hPa Calm   2 mph /  3.2 km/h 81 % 0 in /  0.0 mm
20:52 68 °F /  20.0 °C 57.7 °F /  14.3 °C 30.2 in /  1020.9 hPa WSW 4.7 mph /  7.6 km/h 4.7 mph /  7.6 km/h 70 % 0 in /  0.0 mm
20:57 67.8 °F /  19.9 °C 58.1 °F /  14.5 °C 30.2 in /  1020.9 hPa West 4 mph /  6.4 km/h 4 mph /  6.4 km/h 71 % 0 in /  0.0 mm
21:00 63.3 °F /  17.4 °C 57.7 °F /  14.3 °C 30.2 in /  1022.9 hPa Calm   2 mph /  3.2 km/h 82 % 0 in /  0.0 mm
21:02 67.6 °F /  19.8 °C 57.9 °F /  14.4 °C 30.2 in /  1021.9 hPa WSW 5.8 mph /  9.3 km/h 5.8 mph /  9.3 km/h 71 % 0 in /  0.0 mm
21:07 67.6 °F /  19.8 °C 58.3 °F /  14.6 °C 30.2 in /  1021.9 hPa SW 3.5 mph /  5.6 km/h 3.5 mph /  5.6 km/h 72 % 0 in /  0.0 mm
21:10 63 °F /  17.2 °C 57.4 °F /  14.1 °C 30.2 in /  1021.9 hPa Calm     82 % 0 in /  0.0 mm
21:12 67.5 °F /  19.7 °C 58.1 °F /  14.5 °C 30.2 in /  1021.9 hPa SW 2.4 mph /  3.9 km/h 2.4 mph /  3.9 km/h 72 % 0 in /  0.0 mm
21:17 67.3 °F /  19.6 °C 57.9 °F /  14.4 °C 30.2 in /  1021.9 hPa SSW 3.5 mph /  5.6 km/h 3.5 mph /  5.6 km/h 72 % 0 in /  0.0 mm
21:20 62.4 °F /  16.9 °C 57.2 °F /  14.0 °C 30.2 in /  1021.9 hPa NW 1 mph /  1.6 km/h 2 mph /  3.2 km/h 83 % 0 in /  0.0 mm
21:22 67.1 °F /  19.5 °C 58.3 °F /  14.6 °C 30.2 in /  1021.9 hPa SW 2.3 mph /  3.7 km/h 2.3 mph /  3.7 km/h 73 % 0 in /  0.0 mm
21:27 67.1 °F /  19.5 °C 58.3 °F /  14.6 °C 30.2 in /  1021.9 hPa SW 3.5 mph /  5.6 km/h 3.5 mph /  5.6 km/h 73 % 0 in /  0.0 mm
21:30 62.1 °F /  16.7 °C 56.8 °F /  13.8 °C 30.2 in /  1021.9 hPa SSW 1 mph /  1.6 km/h 1 mph /  1.6 km/h 83 % 0 in /  0.0 mm
21:32 66.9 °F /  19.4 °C 57.9 °F /  14.4 °C 30.2 in /  1021.9 hPa West 3.5 mph /  5.6 km/h 3.5 mph /  5.6 km/h 73 % 0 in /  0.0 mm
21:37 66.9 °F /  19.4 °C 57.9 °F /  14.4 °C 30.2 in /  1021.9 hPa SW 1.4 mph /  2.3 km/h 1.4 mph /  2.3 km/h 73 % 0 in /  0.0 mm
21:40 61.9 °F /  16.6 °C 56.7 °F /  13.7 °C 30.2 in /  1021.9 hPa Calm   2 mph /  3.2 km/h 83 % 0 in /  0.0 mm
21:42 66.7 °F /  19.3 °C 57.7 °F /  14.3 °C 30.2 in /  1021.9 hPa West 2 mph /  3.2 km/h 2 mph /  3.2 km/h 73 % 0 in /  0.0 mm
21:47 66.7 °F /  19.3 °C 58.3 °F /  14.6 °C 30.2 in /  1022.9 hPa SW 2 mph /  3.2 km/h 2 mph /  3.2 km/h 74 % 0 in /  0.0 mm
21:50 62.1 °F /  16.7 °C 56.8 °F /  13.8 °C 30.2 in /  1021.9 hPa West 1 mph /  1.6 km/h 2 mph /  3.2 km/h 83 % 0 in /  0.0 mm
21:52 66.7 °F /  19.3 °C 58.3 °F /  14.6 °C 30.2 in /  1022.9 hPa WSW 3.5 mph /  5.6 km/h 3.5 mph /  5.6 km/h 74 % 0 in /  0.0 mm
21:57 66.6 °F /  19.2 °C 57.9 °F /  14.4 °C 30.2 in /  1022.9 hPa SW 2.3 mph /  3.7 km/h 2.3 mph /  3.7 km/h 74 % 0 in /  0.0 mm
22:00 61.7 °F /  16.5 °C 56.5 °F /  13.6 °C 30.2 in /  1021.9 hPa Calm   1 mph /  1.6 km/h 83 % 0 in /  0.0 mm
22:02 66.6 °F /  19.2 °C 57.9 °F /  14.4 °C 30.2 in /  1021.9 hPa WSW 2.3 mph /  3.7 km/h 2.3 mph /  3.7 km/h 74 % 0 in /  0.0 mm
22:07 66.4 °F /  19.1 °C 58.3 °F /  14.6 °C 30.2 in /  1021.9 hPa SW 1.2 mph /  1.9 km/h 1.2 mph /  1.9 km/h 75 % 0 in /  0.0 mm
22:12 66.4 °F /  19.1 °C 58.3 °F /  14.6 °C 30.2 in /  1021.9 hPa SW 1.4 mph /  2.3 km/h 1.4 mph /  2.3 km/h 75 % 0 in /  0.0 mm
22:17 66.2 °F /  19.0 °C 57.9 °F /  14.4 °C 30.2 in /  1022.9 hPa SW 2.3 mph /  3.7 km/h 2.3 mph /  3.7 km/h 75 % 0 in /  0.0 mm
22:20 61.9 °F /  16.6 °C 57 °F /  13.9 °C 30.2 in /  1021.9 hPa Calm     84 % 0 in /  0.0 mm
22:22 66.2 °F /  19.0 °C 57.9 °F /  14.4 °C 30.2 in /  1022.9 hPa WSW 1.2 mph /  1.9 km/h 1.2 mph /  1.9 km/h 75 % 0 in /  0.0 mm
22:27 66.2 °F /  19.0 °C 57.9 °F /  14.4 °C 30.2 in /  1022.9 hPa West 2.3 mph /  3.7 km/h 2.3 mph /  3.7 km/h 75 % 0 in /  0.0 mm
22:30 61.3 °F /  16.3 °C 56.5 °F /  13.6 °C 30.2 in /  1021.9 hPa Calm   1 mph /  1.6 km/h 84 % 0 in /  0.0 mm
22:32 66.2 °F /  19.0 °C 57.9 °F /  14.4 °C 30.2 in /  1022.9 hPa WSW 2.3 mph /  3.7 km/h 2.3 mph /  3.7 km/h 75 % 0 in /  0.0 mm
22:37 66.2 °F /  19.0 °C 57.9 °F /  14.4 °C 30.2 in /  1022.9 hPa WSW 1.6 mph /  2.6 km/h 1.6 mph /  2.6 km/h 75 % 0 in /  0.0 mm
22:40 60.8 °F /  16.0 °C 55.9 °F /  13.3 °C 30.2 in /  1021.9 hPa Calm     84 % 0 in /  0.0 mm
22:42 66.2 °F /  19.0 °C 58.5 °F /  14.7 °C 30.2 in /  1022.9 hPa WSW 1.4 mph /  2.3 km/h 1.4 mph /  2.3 km/h 76 % 0 in /  0.0 mm
22:47 66 °F /  18.9 °C 58.6 °F /  14.8 °C 30.2 in /  1022.9 hPa SW 1.2 mph /  1.9 km/h   77 % 0 in /  0.0 mm
22:52 65.8 °F /  18.8 °C 58.5 °F /  14.7 °C 30.2 in /  1022.9 hPa SW 2.3 mph /  3.7 km/h 2.3 mph /  3.7 km/h 77 % 0 in /  0.0 mm
22:57 65.7 °F /  18.7 °C 58.3 °F /  14.6 °C 30.2 in /  1022.9 hPa SW 1.6 mph /  2.6 km/h 1.6 mph /  2.6 km/h 77 % 0 in /  0.0 mm
23:00 60.1 °F /  15.6 °C 55.2 °F /  12.9 °C 30.2 in /  1020.9 hPa Calm   2 mph /  3.2 km/h 84 % 0 in /  0.0 mm
23:02 65.3 °F /  18.5 °C 57.9 °F /  14.4 °C 30.2 in /  1022.9 hPa SW 2.3 mph /  3.7 km/h 2.3 mph /  3.7 km/h 77 % 0 in /  0.0 mm
23:07 65.3 °F /  18.5 °C 57.9 °F /  14.4 °C 30.2 in /  1022.9 hPa SW 1.2 mph /  1.9 km/h 1.2 mph /  1.9 km/h 77 % 0 in /  0.0 mm
23:10 59.9 °F /  15.5 °C 55 °F /  12.8 °C 30.2 in /  1021.9 hPa Calm     84 % 0 in /  0.0 mm
23:12 65.1 °F /  18.4 °C 58.1 °F /  14.5 °C 30.2 in /  1022.9 hPa Calm     78 % 0 in /  0.0 mm
23:17 65.1 °F /  18.4 °C 58.1 °F /  14.5 °C 30.2 in /  1022.9 hPa Calm     78 % 0 in /  0.0 mm
23:20 59.9 °F /  15.5 °C 55.4 °F /  13.0 °C 30.2 in /  1021.9 hPa Calm     85 % 0 in /  0.0 mm
23:22 64.9 °F /  18.3 °C 57.9 °F /  14.4 °C 30.2 in /  1022.9 hPa SW 1.2 mph /  1.9 km/h 1.2 mph /  1.9 km/h 78 % 0 in /  0.0 mm
23:27 64.9 °F /  18.3 °C 57.9 °F /  14.4 °C 30.2 in /  1022.9 hPa SW 1.6 mph /  2.6 km/h   78 % 0 in /  0.0 mm
23:30 59.9 °F /  15.5 °C 55.4 °F /  13.0 °C 30.2 in /  1021.9 hPa Calm     85 % 0 in /  0.0 mm
23:32 64.8 °F /  18.2 °C 57.7 °F /  14.3 °C 30.2 in /  1022.9 hPa SW 1.2 mph /  1.9 km/h 1.2 mph /  1.9 km/h 78 % 0 in /  0.0 mm
23:37 64.8 °F /  18.2 °C 57.7 °F /  14.3 °C 30.2 in /  1022.9 hPa Calm     78 % 0 in /  0.0 mm
23:40 60.1 °F /  15.6 °C 55.9 °F /  13.3 °C 30.2 in /  1021.9 hPa Calm     86 % 0 in /  0.0 mm
23:42 64.8 °F /  18.2 °C 57.7 °F /  14.3 °C 30.2 in /  1022.9 hPa West 2.3 mph /  3.7 km/h 2.3 mph /  3.7 km/h 78 % 0 in /  0.0 mm
23:47 64.8 °F /  18.2 °C 57.7 °F /  14.3 °C 30.2 in /  1021.9 hPa West 2.3 mph /  3.7 km/h 2.3 mph /  3.7 km/h 78 % 0 in /  0.0 mm
23:52 64.8 °F /  18.2 °C 57.7 °F /  14.3 °C 30.2 in /  1021.9 hPa West 2.3 mph /  3.7 km/h 2.3 mph /  3.7 km/h 78 % 0 in /  0.0 mm
23:57 64.8 °F /  18.2 °C 57.7 °F /  14.3 °C 30.2 in /  1021.9 hPa West 2.3 mph /  3.7 km/h 2.3 mph /  3.7 km/h 78 % 0 in /  0.0 mm
Meteo Sesrovires
Elogis d' Weather Underground - 3.5 mb

Guio original per  Jim McMurry - jmcmurry@mwt.net Adaptat per a la plantilla per  Wim van der Kuil - Leuven-Template.eu

Trobareu la nostra informacio del temps tambe a:

Weather Underground

AWEKAS